createdAt,value
2019-03-25T00:01:15.846Z,73.18
2019-03-25T00:03:43.150Z,73.18
2019-03-25T00:06:10.386Z,73.67
2019-03-25T00:08:37.555Z,73.19
2019-03-25T00:11:04.788Z,73.30
2019-03-25T00:13:32.182Z,72.86
2019-03-25T00:15:59.392Z,72.63
2019-03-25T00:18:26.581Z,72.92
2019-03-25T00:20:53.939Z,72.60
2019-03-25T00:23:21.117Z,72.50
2019-03-25T00:25:48.321Z,72.18
2019-03-25T00:28:15.667Z,71.97
2019-03-25T00:30:42.841Z,71.92
2019-03-25T00:33:10.010Z,71.50
2019-03-25T00:35:37.206Z,71.52
2019-03-25T00:38:04.506Z,71.12
2019-03-25T00:40:31.678Z,71.08
2019-03-25T00:42:58.881Z,71.02
2019-03-25T00:45:26.071Z,71.17
2019-03-25T00:47:53.426Z,70.63
2019-03-25T00:50:20.701Z,70.65
2019-03-25T00:52:47.894Z,71.09
2019-03-25T00:55:15.136Z,71.42
2019-03-25T00:57:42.381Z,71.33
2019-03-25T01:00:09.791Z,71.72
2019-03-25T01:02:37.147Z,71.51
2019-03-25T01:05:06.485Z,71.33
2019-03-25T01:07:33.762Z,71.63
2019-03-25T01:10:01.050Z,71.70
2019-03-25T01:12:28.247Z,71.92
2019-03-25T01:14:55.527Z,71.75
2019-03-25T01:17:22.795Z,71.80
2019-03-25T01:19:50.094Z,71.89
2019-03-25T01:22:17.169Z,71.59
2019-03-25T01:24:44.477Z,71.45
2019-03-25T01:27:11.653Z,71.50
2019-03-25T01:29:38.878Z,71.90
2019-03-25T01:32:06.181Z,72.25
2019-03-25T01:34:33.501Z,72.30
2019-03-25T01:37:00.786Z,71.75
2019-03-25T01:39:27.976Z,71.72
2019-03-25T01:41:55.308Z,71.84
2019-03-25T01:44:22.625Z,72.08
2019-03-25T01:46:49.907Z,72.26
2019-03-25T01:49:17.131Z,72.22
2019-03-25T01:51:44.385Z,72.49
2019-03-25T01:54:11.779Z,72.58
2019-03-25T01:56:39.170Z,72.81
2019-03-25T01:59:06.435Z,72.56
2019-03-25T02:01:33.625Z,72.47
2019-03-25T02:04:00.937Z,72.57
2019-03-25T02:06:28.224Z,72.67
2019-03-25T02:08:55.404Z,72.92
2019-03-25T02:11:22.843Z,72.90
2019-03-25T02:13:50.113Z,72.82
2019-03-25T02:16:17.313Z,72.69
2019-03-25T02:18:44.502Z,72.75
2019-03-25T02:21:12.297Z,72.82
2019-03-25T02:23:39.479Z,72.82
2019-03-25T02:26:06.685Z,72.83
2019-03-25T02:28:34.158Z,73.40
2019-03-25T02:31:01.394Z,73.09
2019-03-25T02:33:28.690Z,73.65
2019-03-25T02:35:55.960Z,73.78
2019-03-25T02:38:23.309Z,73.50
2019-03-25T02:40:50.497Z,73.71
2019-03-25T02:43:17.807Z,73.81
2019-03-25T02:45:44.997Z,73.93
2019-03-25T02:48:12.178Z,73.61
2019-03-25T02:50:41.274Z,73.68
2019-03-25T02:53:08.583Z,73.92
2019-03-25T02:55:41.998Z,73.70
2019-03-25T02:58:05.304Z,73.71
2019-03-25T03:00:36.396Z,73.68
2019-03-25T03:03:04.260Z,74.05
2019-03-25T03:05:31.568Z,73.53
2019-03-25T03:07:58.879Z,73.77
2019-03-25T03:10:26.050Z,73.88
2019-03-25T03:12:53.252Z,73.71
2019-03-25T03:15:20.574Z,73.74
2019-03-25T03:17:47.860Z,73.13
2019-03-25T03:20:15.277Z,73.46
2019-03-25T03:22:42.612Z,73.66
2019-03-25T03:25:09.910Z,73.41
2019-03-25T03:27:37.239Z,73.56
2019-03-25T03:30:04.680Z,72.63
2019-03-25T03:32:31.910Z,72.51
2019-03-25T03:34:59.225Z,73.11
2019-03-25T03:37:26.667Z,72.67
2019-03-25T03:39:53.998Z,72.53
2019-03-25T03:42:21.294Z,72.16
2019-03-25T03:44:48.703Z,71.97
2019-03-25T03:47:16.059Z,72.55
2019-03-25T03:49:43.259Z,71.78
2019-03-25T03:52:10.728Z,72.03
2019-03-25T03:57:18.323Z,71.76
2019-03-25T03:59:45.623Z,71.77
2019-03-25T04:02:12.896Z,71.30
2019-03-25T04:04:40.237Z,71.69
2019-03-25T04:07:07.419Z,71.53
2019-03-25T04:09:34.825Z,71.29
2019-03-25T04:12:02.234Z,71.53
2019-03-25T04:14:29.760Z,71.72
2019-03-25T04:16:57.049Z,71.53
2019-03-25T04:19:24.292Z,71.45
2019-03-25T04:21:51.613Z,70.88
2019-03-25T04:24:18.875Z,71.02
2019-03-25T04:26:46.298Z,71.07
2019-03-25T04:29:13.615Z,71.15
2019-03-25T04:31:40.997Z,70.89
2019-03-25T04:34:08.294Z,71.01
2019-03-25T04:36:35.500Z,70.68
2019-03-25T04:39:04.061Z,71.08
2019-03-25T04:41:31.458Z,70.40
2019-03-25T04:43:58.878Z,70.59
2019-03-25T04:46:26.328Z,70.97
2019-03-25T04:48:53.485Z,71.11
2019-03-25T04:51:20.990Z,71.06
2019-03-25T04:53:48.171Z,71.30
2019-03-25T04:56:15.404Z,71.56
2019-03-25T04:58:43.876Z,71.86
2019-03-25T05:01:11.129Z,72.03
2019-03-25T05:03:38.435Z,71.98
2019-03-25T05:06:05.713Z,72.73
2019-03-25T05:08:32.920Z,72.72
2019-03-25T05:11:00.235Z,72.86
2019-03-25T05:13:27.634Z,73.06
2019-03-25T05:15:54.754Z,73.01
2019-03-25T05:18:22.175Z,73.31
2019-03-25T05:20:49.433Z,72.75
2019-03-25T05:23:16.687Z,72.75
2019-03-25T05:25:44.043Z,72.78
2019-03-25T05:28:11.351Z,72.57
2019-03-25T05:30:38.840Z,72.40
2019-03-25T05:33:06.050Z,71.91
2019-03-25T05:35:33.382Z,72.30
2019-03-25T05:38:00.731Z,71.77
2019-03-25T05:40:28.606Z,72.08
2019-03-25T05:42:55.973Z,71.07
2019-03-25T05:45:23.292Z,71.81
2019-03-25T05:47:50.547Z,71.10
2019-03-25T05:50:17.961Z,70.27
2019-03-25T05:52:45.662Z,70.68
2019-03-25T05:55:12.858Z,70.49
2019-03-25T05:57:40.523Z,69.61
2019-03-25T06:00:09.162Z,69.45
2019-03-25T06:02:36.802Z,68.14
2019-03-25T06:05:04.728Z,67.66
2019-03-25T06:07:32.049Z,68.23
2019-03-25T06:09:59.430Z,67.70
2019-03-25T06:12:26.920Z,66.58
2019-03-25T06:14:54.209Z,65.36
2019-03-25T06:17:21.531Z,65.50
2019-03-25T06:19:48.920Z,66.15
2019-03-25T06:22:16.208Z,65.33
2019-03-25T06:24:43.427Z,64.76
2019-03-25T06:27:14.417Z,64.54
2019-03-25T06:29:41.812Z,64.81
2019-03-25T06:32:09.178Z,64.38
2019-03-25T06:34:37.095Z,64.19
2019-03-25T06:37:04.433Z,63.26
2019-03-25T06:39:31.626Z,62.76
2019-03-25T06:41:59.260Z,62.88
2019-03-25T06:44:26.568Z,62.06
2019-03-25T06:46:53.860Z,61.95
2019-03-25T06:49:21.349Z,61.20
2019-03-25T06:51:48.905Z,59.53
2019-03-25T06:54:16.172Z,59.62
2019-03-25T06:56:43.555Z,59.83
2019-03-25T06:59:10.987Z,59.84
2019-03-25T07:01:38.379Z,58.66
2019-03-25T07:04:05.640Z,59.48
2019-03-25T07:06:33.126Z,58.31
2019-03-25T07:09:00.375Z,57.86
2019-03-25T07:11:27.578Z,57.70
2019-03-25T07:13:54.756Z,57.03
2019-03-25T07:16:22.076Z,56.95
2019-03-25T07:18:49.360Z,57.60
2019-03-25T07:21:16.651Z,57.13
2019-03-25T07:23:44.045Z,57.24
2019-03-25T07:26:11.440Z,57.23
2019-03-25T07:28:38.896Z,54.83
2019-03-25T07:31:06.287Z,55.87
2019-03-25T07:33:33.780Z,54.41
2019-03-25T07:36:01.028Z,54.19
2019-03-25T07:38:28.344Z,53.54
2019-03-25T07:40:55.537Z,53.23
2019-03-25T07:43:22.902Z,53.87
2019-03-25T07:45:50.236Z,51.44
2019-03-25T07:48:17.608Z,51.05
2019-03-25T07:50:44.852Z,50.34
2019-03-25T07:53:12.174Z,50.85
2019-03-25T07:55:40.452Z,50.81
2019-03-25T07:58:07.957Z,49.53
2019-03-25T08:00:35.247Z,48.45
2019-03-25T08:03:02.577Z,48.35
2019-03-25T08:05:29.796Z,47.76
2019-03-25T08:07:56.992Z,45.78
2019-03-25T08:10:34.343Z,44.71
2019-03-25T08:13:01.945Z,44.36
2019-03-25T08:15:29.281Z,41.41
2019-03-25T08:17:56.701Z,39.78
2019-03-25T08:20:23.949Z,39.42
2019-03-25T08:22:51.295Z,37.95
2019-03-25T08:25:18.595Z,37.25
2019-03-25T08:27:45.973Z,34.84
2019-03-25T08:30:13.392Z,34.56
2019-03-25T08:32:40.676Z,34.62
2019-03-25T08:35:08.073Z,32.75
2019-03-25T08:37:35.491Z,34.14
2019-03-25T08:40:03.112Z,32.90
2019-03-25T08:42:30.490Z,31.59
2019-03-25T08:44:57.667Z,31.65
2019-03-25T08:47:24.993Z,32.47
2019-03-25T08:49:52.312Z,31.44
2019-03-25T08:52:19.629Z,30.51
2019-03-25T08:54:47.029Z,31.49
2019-03-25T08:57:14.336Z,31.45
2019-03-25T08:59:42.761Z,32.80
2019-03-25T09:02:10.069Z,33.15
2019-03-25T09:04:37.285Z,34.51
2019-03-25T09:07:04.600Z,33.97
2019-03-25T09:09:31.916Z,35.69
2019-03-25T09:11:59.207Z,35.01
2019-03-25T09:14:26.546Z,34.57
2019-03-25T09:16:53.937Z,36.67
2019-03-25T09:19:21.129Z,35.19
2019-03-25T09:21:48.447Z,33.78
2019-03-25T09:24:15.746Z,34.39
2019-03-25T09:26:42.968Z,35.23
2019-03-25T09:29:10.246Z,34.35
2019-03-25T09:31:37.436Z,33.50
2019-03-25T09:34:04.744Z,33.39
2019-03-25T09:36:32.198Z,34.25
2019-03-25T09:38:59.336Z,35.34
2019-03-25T09:41:26.641Z,33.97
2019-03-25T09:43:53.918Z,35.89
2019-03-25T09:46:21.224Z,35.46
2019-03-25T09:48:48.623Z,36.15
2019-03-25T09:51:15.967Z,36.55
2019-03-25T09:53:43.310Z,37.10
2019-03-25T09:56:10.596Z,38.00
2019-03-25T09:58:37.937Z,37.22
2019-03-25T10:01:05.294Z,39.67
2019-03-25T10:03:32.661Z,40.08
2019-03-25T10:05:59.961Z,41.36
2019-03-25T10:08:27.315Z,42.74
2019-03-25T10:10:54.530Z,42.42
2019-03-25T10:13:21.876Z,44.60
2019-03-25T10:15:49.227Z,45.69
2019-03-25T10:18:16.542Z,47.00
2019-03-25T10:20:43.926Z,47.80
2019-03-25T10:23:11.503Z,48.37
2019-03-25T10:25:38.916Z,48.86
2019-03-25T10:28:07.313Z,49.45
2019-03-25T10:30:34.666Z,50.07
2019-03-25T10:33:02.008Z,50.85
2019-03-25T10:35:29.356Z,51.01
2019-03-25T10:37:57.744Z,51.98
2019-03-25T10:40:25.153Z,54.06
2019-03-25T10:42:52.465Z,55.44
2019-03-25T10:45:20.856Z,56.68
2019-03-25T10:47:48.052Z,57.65
2019-03-25T10:50:15.553Z,58.03
2019-03-25T10:52:42.958Z,59.46
2019-03-25T10:55:10.282Z,58.54
2019-03-25T10:57:37.629Z,58.43
2019-03-25T11:00:06.418Z,59.79
2019-03-25T11:02:33.715Z,59.21
2019-03-25T11:05:01.049Z,57.80
2019-03-25T11:07:29.520Z,58.74
2019-03-25T11:09:56.891Z,56.46
2019-03-25T11:12:24.077Z,56.64
2019-03-25T11:14:51.437Z,55.88
2019-03-25T11:17:18.644Z,52.79
2019-03-25T11:19:45.957Z,53.69
2019-03-25T11:22:13.352Z,50.58
2019-03-25T11:24:40.653Z,48.40
2019-03-25T11:27:08.042Z,48.41
2019-03-25T11:29:35.261Z,48.93
2019-03-25T11:32:02.569Z,47.51
2019-03-25T11:34:29.902Z,45.87
2019-03-25T11:36:57.205Z,44.86
2019-03-25T11:39:24.517Z,45.76
2019-03-25T11:41:51.910Z,47.00
2019-03-25T11:44:19.249Z,43.99
2019-03-25T11:46:46.566Z,43.62
2019-03-25T11:49:13.866Z,44.56
2019-03-25T11:51:41.240Z,45.61
2019-03-25T11:54:08.534Z,45.78
2019-03-25T11:56:35.850Z,44.84
2019-03-25T11:59:05.502Z,45.74
2019-03-25T12:01:32.926Z,47.38
2019-03-25T12:04:00.371Z,49.59
2019-03-25T12:06:27.744Z,51.41
2019-03-25T12:08:55.120Z,52.64
2019-03-25T12:11:23.729Z,51.06
2019-03-25T12:13:51.180Z,51.68
2019-03-25T12:16:18.513Z,51.91
2019-03-25T12:18:45.902Z,52.67
2019-03-25T12:21:13.233Z,53.12
2019-03-25T12:23:40.663Z,53.76
2019-03-25T12:26:08.052Z,55.07
2019-03-25T12:28:35.417Z,58.84
2019-03-25T12:31:02.628Z,62.55
2019-03-25T12:33:29.947Z,63.97
2019-03-25T12:35:57.139Z,66.48
2019-03-25T12:38:24.461Z,67.65
2019-03-25T12:40:51.651Z,70.83
2019-03-25T12:43:19.011Z,69.42
2019-03-25T12:45:46.304Z,71.01
2019-03-25T12:48:13.720Z,72.04
2019-03-25T12:50:41.049Z,73.63
2019-03-25T12:53:08.244Z,74.24
2019-03-25T12:55:35.500Z,71.11
2019-03-25T12:58:02.815Z,68.90
2019-03-25T13:00:37.987Z,71.99
2019-03-25T13:03:05.331Z,70.27
2019-03-25T13:05:33.706Z,68.89
2019-03-25T13:08:01.120Z,69.98
2019-03-25T13:10:28.637Z,69.60
2019-03-25T13:12:55.960Z,71.62
2019-03-25T13:15:23.281Z,69.49
2019-03-25T13:17:50.596Z,66.61
2019-03-25T13:20:17.916Z,68.12
2019-03-25T13:22:45.221Z,67.93
2019-03-25T13:25:12.445Z,69.76
2019-03-25T13:27:39.654Z,69.56
2019-03-25T13:30:08.512Z,68.53
2019-03-25T13:32:35.825Z,68.69
2019-03-25T13:35:03.363Z,65.87
2019-03-25T13:37:30.637Z,66.50
2019-03-25T13:39:57.841Z,67.50
2019-03-25T13:42:25.041Z,67.81
2019-03-25T13:44:54.876Z,69.08
2019-03-25T13:47:21.493Z,66.23
2019-03-25T13:49:48.803Z,68.95
2019-03-25T13:52:16.160Z,67.61
2019-03-25T13:54:43.496Z,66.22
2019-03-25T13:57:10.789Z,67.30
2019-03-25T13:59:38.129Z,68.28
2019-03-25T14:02:05.491Z,62.98
2019-03-25T14:04:32.685Z,64.85
2019-03-25T14:06:59.982Z,65.25
2019-03-25T14:09:27.178Z,65.41
2019-03-25T14:11:54.482Z,64.12
2019-03-25T14:14:24.493Z,67.42
2019-03-25T14:16:51.693Z,65.81
2019-03-25T14:19:18.947Z,64.19
2019-03-25T14:21:46.288Z,67.90
2019-03-25T14:24:13.622Z,68.02
2019-03-25T14:26:40.905Z,64.68
2019-03-25T14:29:08.400Z,66.29
2019-03-25T14:31:35.735Z,64.29
2019-03-25T14:34:03.260Z,64.69
2019-03-25T14:36:30.856Z,62.98
2019-03-25T14:38:58.525Z,63.27
2019-03-25T14:41:25.927Z,65.24
2019-03-25T14:43:54.430Z,64.25
2019-03-25T14:46:21.734Z,63.98
2019-03-25T14:48:49.115Z,62.14
2019-03-25T14:51:16.527Z,58.15
2019-03-25T14:53:45.534Z,61.65
2019-03-25T14:56:12.913Z,58.97
2019-03-25T14:58:40.272Z,59.01
2019-03-25T15:01:08.654Z,61.82
2019-03-25T15:03:36.115Z,57.84
2019-03-25T15:06:03.341Z,55.20
2019-03-25T15:08:30.715Z,56.84
2019-03-25T15:10:58.087Z,56.89
2019-03-25T15:13:25.472Z,56.20
2019-03-25T15:15:52.819Z,55.16
2019-03-25T15:18:20.180Z,54.60
2019-03-25T15:20:47.502Z,56.11
2019-03-25T15:23:14.612Z,56.55
2019-03-25T15:25:41.925Z,55.52
2019-03-25T15:28:09.416Z,57.86
2019-03-25T15:30:36.843Z,55.06
2019-03-25T15:33:04.169Z,53.94
2019-03-25T15:35:31.507Z,54.63
2019-03-25T15:37:58.908Z,54.39
2019-03-25T15:40:26.289Z,54.65
2019-03-25T15:42:53.624Z,53.04
2019-03-25T15:45:20.810Z,54.55
2019-03-25T15:47:48.483Z,58.52
2019-03-25T15:50:15.819Z,60.25
2019-03-25T15:52:43.124Z,62.78
2019-03-25T15:55:11.709Z,63.30
2019-03-25T15:57:39.873Z,65.07
2019-03-25T16:00:11.550Z,66.44
2019-03-25T16:02:38.923Z,66.91
2019-03-25T16:05:06.354Z,68.71
2019-03-25T16:07:33.744Z,67.18
2019-03-25T16:10:00.965Z,69.16
2019-03-25T16:12:28.364Z,66.81
2019-03-25T16:14:55.661Z,67.21
2019-03-25T16:17:22.964Z,68.88
2019-03-25T16:19:50.304Z,67.58
2019-03-25T16:22:17.608Z,72.58
2019-03-25T16:24:44.916Z,69.61
2019-03-25T16:27:12.281Z,71.96
2019-03-25T16:29:39.665Z,71.05
2019-03-25T16:32:06.968Z,69.71
2019-03-25T16:34:34.279Z,69.08
2019-03-25T16:37:01.497Z,70.00
2019-03-25T16:39:28.857Z,73.49
2019-03-25T16:41:56.146Z,70.01
2019-03-25T16:44:23.470Z,70.93
2019-03-25T16:49:15.237Z,71.34
2019-03-25T16:51:42.627Z,73.71
2019-03-25T16:54:10.064Z,73.47
2019-03-25T16:56:37.480Z,72.02
2019-03-25T16:59:04.895Z,71.26
2019-03-25T17:01:32.319Z,72.76
2019-03-25T17:03:59.517Z,72.37
2019-03-25T17:06:26.765Z,70.42
2019-03-25T17:08:54.086Z,73.12
2019-03-25T17:11:21.456Z,74.40
2019-03-25T17:13:48.851Z,74.20
2019-03-25T17:16:16.156Z,74.06
2019-03-25T17:18:43.537Z,72.94
2019-03-25T17:21:10.898Z,74.34
2019-03-25T17:23:38.112Z,73.93
2019-03-25T17:26:06.420Z,75.00
2019-03-25T17:28:33.745Z,74.16
2019-03-25T17:31:03.115Z,74.51
2019-03-25T17:33:30.483Z,73.82
2019-03-25T17:35:57.710Z,74.15
2019-03-25T17:38:25.148Z,73.00
2019-03-25T17:40:52.480Z,73.45
2019-03-25T17:43:19.696Z,72.96
2019-03-25T17:45:47.024Z,71.33
2019-03-25T17:48:14.381Z,71.84
2019-03-25T17:50:41.773Z,72.89
2019-03-25T17:53:09.116Z,73.52
2019-03-25T17:55:36.536Z,71.99
2019-03-25T17:58:03.763Z,71.78
2019-03-25T18:01:04.649Z,70.66
2019-03-25T18:03:31.878Z,71.87
2019-03-25T18:05:59.148Z,72.74
2019-03-25T18:08:26.438Z,71.37
2019-03-25T18:10:53.713Z,70.61
2019-03-25T18:13:22.607Z,73.75
2019-03-25T18:15:49.979Z,71.49
2019-03-25T18:18:17.322Z,71.32
2019-03-25T18:20:44.633Z,68.78
2019-03-25T18:23:11.946Z,69.24
2019-03-25T18:25:39.234Z,68.09
2019-03-25T18:28:06.595Z,69.04
2019-03-25T18:30:34.280Z,69.07
2019-03-25T18:33:01.947Z,69.30
2019-03-25T18:35:29.317Z,68.36
2019-03-25T18:37:56.693Z,69.83
2019-03-25T18:40:23.969Z,68.17
2019-03-25T18:42:51.267Z,68.30
2019-03-25T18:45:18.597Z,69.62
2019-03-25T18:47:45.887Z,70.84
2019-03-25T18:50:13.393Z,68.82
2019-03-25T18:52:40.814Z,70.22
2019-03-25T18:55:08.174Z,71.25
2019-03-25T18:57:35.516Z,70.53
2019-03-25T19:00:03.449Z,70.60
2019-03-25T19:02:30.860Z,70.72
2019-03-25T19:04:58.196Z,70.30
2019-03-25T19:07:25.783Z,70.86
2019-03-25T19:09:53.493Z,70.84
2019-03-25T19:12:20.912Z,72.30
2019-03-25T19:14:49.365Z,72.59
2019-03-25T19:17:16.929Z,73.50
2019-03-25T19:19:44.422Z,73.44
2019-03-25T19:22:12.949Z,73.42
2019-03-25T19:24:40.421Z,73.53
2019-03-25T19:27:07.762Z,74.00
2019-03-25T19:29:35.159Z,74.31
2019-03-25T19:32:06.911Z,74.17
2019-03-25T19:34:32.713Z,74.95
2019-03-25T19:37:00.043Z,74.55
2019-03-25T19:39:27.441Z,74.32
2019-03-25T19:41:54.808Z,74.93
2019-03-25T19:44:22.103Z,75.80
2019-03-25T19:46:49.476Z,76.79
2019-03-25T19:49:16.836Z,75.59
2019-03-25T19:51:44.262Z,75.38
2019-03-25T19:54:11.776Z,76.17
2019-03-25T19:56:39.183Z,76.27
2019-03-25T19:59:06.567Z,76.07
2019-03-25T20:01:33.936Z,77.22
2019-03-25T20:04:01.383Z,76.65
2019-03-25T20:06:30.076Z,77.15
2019-03-25T20:08:57.677Z,76.92
2019-03-25T20:11:24.936Z,76.65
2019-03-25T20:13:52.421Z,77.34
2019-03-25T20:16:19.699Z,76.87
2019-03-25T20:18:47.087Z,76.78
2019-03-25T20:21:14.472Z,77.96
2019-03-25T20:23:41.677Z,76.98
2019-03-25T20:26:08.995Z,77.61
2019-03-25T20:28:36.227Z,75.90
2019-03-25T20:31:03.579Z,75.86
2019-03-25T20:33:30.769Z,77.09
2019-03-25T20:35:58.212Z,77.05
2019-03-25T20:38:25.653Z,76.62
2019-03-25T20:40:53.206Z,76.03
2019-03-25T20:43:20.686Z,76.37
2019-03-25T20:45:48.213Z,78.22
2019-03-25T20:48:15.556Z,77.29
2019-03-25T20:50:43.009Z,76.59
2019-03-25T20:53:10.439Z,76.03
2019-03-25T20:55:37.710Z,75.88
2019-03-25T20:58:05.074Z,76.15
2019-03-25T21:00:45.935Z,76.44
2019-03-25T21:03:13.355Z,77.37
2019-03-25T21:05:40.824Z,76.57
2019-03-25T21:08:08.167Z,78.03
2019-03-25T21:10:35.789Z,78.81
2019-03-25T21:13:03.376Z,77.72
2019-03-25T21:15:30.856Z,78.40
2019-03-25T21:17:58.219Z,78.07
2019-03-25T21:20:25.648Z,77.49
2019-03-25T21:22:53.054Z,77.50
2019-03-25T21:25:20.346Z,77.57
2019-03-25T21:27:47.742Z,78.18
2019-03-25T21:30:15.217Z,77.62
2019-03-25T21:32:42.475Z,77.20
2019-03-25T21:35:12.192Z,76.46
2019-03-25T21:37:39.588Z,75.82
2019-03-25T21:40:07.115Z,76.68
2019-03-25T21:42:37.256Z,77.60
2019-03-25T21:45:05.202Z,77.46
2019-03-25T21:47:32.550Z,78.22
2019-03-25T21:49:59.963Z,77.64
2019-03-25T21:52:27.215Z,76.74
2019-03-25T21:54:54.595Z,77.21
2019-03-25T21:57:22.091Z,77.60
2019-03-25T21:59:49.470Z,79.64
2019-03-25T22:02:16.821Z,79.34
2019-03-25T22:04:44.172Z,80.30
2019-03-25T22:07:11.540Z,79.69
2019-03-25T22:09:39.017Z,78.80
2019-03-25T22:12:06.367Z,76.59
2019-03-25T22:14:33.837Z,78.98
2019-03-25T22:17:01.313Z,77.58
2019-03-25T22:19:28.741Z,77.66
2019-03-25T22:21:56.100Z,79.39
2019-03-25T22:24:23.475Z,78.60
2019-03-25T22:26:50.821Z,78.33
2019-03-25T22:29:18.173Z,78.88
2019-03-25T22:31:46.587Z,79.09
2019-03-25T22:34:13.933Z,79.39
2019-03-25T22:36:41.188Z,80.33
2019-03-25T22:39:08.530Z,80.09
2019-03-25T22:41:35.981Z,78.80
2019-03-25T22:44:04.461Z,79.61
2019-03-25T22:46:31.735Z,80.60
2019-03-25T22:48:59.051Z,78.60
2019-03-25T22:51:26.374Z,80.07
2019-03-25T22:53:53.668Z,78.21
2019-03-25T22:56:21.051Z,79.42
2019-03-25T22:58:48.388Z,78.86
2019-03-25T23:01:15.697Z,78.64
2019-03-25T23:03:42.996Z,78.53
2019-03-25T23:06:10.195Z,78.96
2019-03-25T23:08:37.398Z,79.33
2019-03-25T23:11:04.772Z,80.13
2019-03-25T23:13:32.055Z,80.09
2019-03-25T23:15:59.307Z,80.66
2019-03-25T23:18:26.542Z,80.76
2019-03-25T23:20:53.879Z,81.17
2019-03-25T23:23:21.075Z,79.45
2019-03-25T23:25:48.390Z,79.29
2019-03-25T23:28:15.720Z,80.72
2019-03-25T23:30:42.916Z,80.20
2019-03-25T23:33:10.353Z,81.79
2019-03-25T23:35:37.775Z,81.03
2019-03-25T23:38:05.069Z,80.55
2019-03-25T23:40:32.426Z,80.70
2019-03-25T23:42:59.677Z,81.26
2019-03-25T23:45:26.859Z,81.73
2019-03-25T23:47:54.152Z,83.29
2019-03-25T23:50:21.511Z,82.22
2019-03-25T23:52:48.698Z,83.03
2019-03-25T23:55:15.886Z,81.32
2019-03-25T23:57:43.291Z,80.87
